Time;durP1;ratioP1;P1;durP2;ratioP2;P2;SDS_P1;SDS_P2;PMS_P1;PMS_P2;Temp;Humidity;BMP_temperature;BMP_pressure;BME280_temperature;BME280_humidity;BME280_pressure;Samples;Min_cycle;Max_cycle;Signal;HPM_P1;HPM_P2
2024/04/21 00:00:06;;;;;;;3.70;2.23;;;4.90;82.20;;;;;;5412228;26;20586;-74
2024/04/21 00:02:32;;;;;;;3.70;2.80;;;4.80;82.20;;;;;;5408867;26;20653;-72
2024/04/21 00:04:58;;;;;;;4.10;2.20;;;4.80;82.10;;;;;;5412312;26;20463;-71
2024/04/21 00:07:23;;;;;;;4.20;2.13;;;4.80;82.40;;;;;;5402459;26;20613;-72
2024/04/21 00:09:49;;;;;;;4.60;2.53;;;4.80;82.50;;;;;;5412318;26;20830;-73
2024/04/21 00:12:15;;;;;;;5.67;2.20;;;4.80;82.40;;;;;;5405153;26;20257;-72
2024/04/21 00:14:40;;;;;;;9.23;2.20;;;4.80;82.20;;;;;;5404816;26;20245;-71
2024/04/21 00:17:06;;;;;;;2.30;1.60;;;4.80;82.20;;;;;;5413414;26;20238;-73
2024/04/21 00:19:31;;;;;;;2.50;1.67;;;4.80;82.20;;;;;;5413512;26;20272;-73
2024/04/21 00:21:57;;;;;;;2.87;1.90;;;4.80;81.90;;;;;;5408384;26;20663;-73
2024/04/21 00:24:28;;;;;;;2.47;1.53;;;4.80;82.10;;;;;;5408206;26;20237;-73
2024/04/21 00:26:54;;;;;;;3.67;1.73;;;4.90;81.90;;;;;;5412151;26;20233;-72
2024/04/21 00:29:19;;;;;;;2.50;1.43;;;5.00;81.80;;;;;;5388256;26;20467;-69
2024/04/21 00:31:45;;;;;;;3.47;2.00;;;5.00;81.80;;;;;;5392985;26;20546;-71
2024/04/21 00:34:11;;;;;;;2.57;1.70;;;5.10;81.80;;;;;;5412418;26;20283;-72
2024/04/21 00:36:37;;;;;;;2.13;1.60;;;5.10;81.80;;;;;;5407451;26;20237;-71
2024/04/21 00:39:03;;;;;;;2.00;1.50;;;5.10;81.40;;;;;;5411566;26;20242;-73
2024/04/21 00:41:29;;;;;;;1.90;1.40;;;5.10;81.20;;;;;;5409107;26;20467;-74
2024/04/21 00:43:54;;;;;;;2.77;1.70;;;5.00;81.70;;;;;;5411406;26;20270;-73
2024/04/21 00:46:20;;;;;;;4.00;2.20;;;5.00;81.80;;;;;;5410945;26;20234;-72
2024/04/21 00:48:46;;;;;;;3.07;1.93;;;5.00;81.90;;;;;;5411336;26;20245;-72
2024/04/21 00:51:11;;;;;;;2.37;2.20;;;5.00;81.90;;;;;;5408905;26;20234;-71
2024/04/21 00:53:38;;;;;;;3.30;2.13;;;5.00;81.90;;;;;;5409882;26;20474;-72
2024/04/21 00:56:06;;;;;;;3.73;1.87;;;5.00;82.10;;;;;;5413468;26;20584;-72
2024/04/21 00:58:31;;;;;;;2.20;1.63;;;5.10;82.20;;;;;;5416161;26;20467;-72
2024/04/21 01:00:58;;;;;;;3.93;1.40;;;5.20;81.90;;;;;;5415027;26;20526;-70
2024/04/21 01:03:24;;;;;;;2.43;1.67;;;5.20;81.80;;;;;;5418754;26;20323;-73
2024/04/21 01:05:50;;;;;;;3.10;1.90;;;5.20;81.50;;;;;;5407806;26;20589;-73
2024/04/21 01:08:15;;;;;;;2.57;1.60;;;5.20;81.50;;;;;;5415189;26;20683;-72
2024/04/21 01:10:41;;;;;;;3.37;1.47;;;5.10;81.50;;;;;;5415865;26;20268;-72
2024/04/21 01:13:13;;;;;;;2.20;1.60;;;5.20;81.70;;;;;;5402095;26;20475;-72
2024/04/21 01:15:39;;;;;;;2.20;1.67;;;5.20;81.80;;;;;;5412865;26;20282;-72
2024/04/21 01:18:06;;;;;;;2.20;1.13;;;5.20;81.70;;;;;;5415134;26;20914;-72
2024/04/21 01:20:35;;;;;;;2.67;1.43;;;5.10;82.10;;;;;;5416045;26;20280;-73
2024/04/21 01:23:01;;;;;;;1.70;1.10;;;5.10;82.40;;;;;;5384889;26;20605;-73
2024/04/21 01:25:27;;;;;;;3.83;1.40;;;5.00;82.50;;;;;;5414554;26;20938;-72
2024/04/21 01:27:52;;;;;;;1.63;1.13;;;5.00;82.80;;;;;;5415628;26;20305;-73
2024/04/21 01:30:18;;;;;;;1.37;1.30;;;5.00;83.00;;;;;;5425859;26;20253;-71
2024/04/21 01:32:44;;;;;;;1.17;0.90;;;5.00;82.70;;;;;;5410857;26;20257;-71
2024/04/21 01:35:09;;;;;;;2.03;1.20;;;4.90;82.80;;;;;;5402828;26;20603;-73
2024/04/21 01:37:35;;;;;;;2.23;1.40;;;5.00;82.80;;;;;;5414522;26;20238;-73
2024/04/21 01:40:02;;;;;;;1.80;1.10;;;5.00;83.00;;;;;;5415627;26;20281;-72
2024/04/21 01:42:28;;;;;;;2.10;1.33;;;4.90;83.00;;;;;;5410675;26;20246;-72
2024/04/21 01:44:54;;;;;;;3.97;1.20;;;5.00;83.00;;;;;;5417925;26;20471;-72
2024/04/21 01:47:19;;;;;;;1.83;1.00;;;5.00;82.70;;;;;;5413512;26;20239;-72
2024/04/21 01:49:47;;;;;;;1.70;1.00;;;5.00;82.80;;;;;;5417085;26;20233;-73
2024/04/21 01:52:12;;;;;;;1.70;1.20;;;5.10;82.70;;;;;;5411159;26;20352;-73
2024/04/21 01:54:38;;;;;;;2.50;1.23;;;5.10;82.70;;;;;;5405988;26;20477;-72
2024/04/21 01:57:04;;;;;;;2.17;1.50;;;5.00;82.70;;;;;;5426965;26;20228;-71
2024/04/21 01:59:29;;;;;;;1.30;1.10;;;5.00;82.80;;;;;;5420185;26;20329;-73
2024/04/21 02:01:55;;;;;;;2.17;1.30;;;5.00;82.70;;;;;;5413288;26;20468;-73
2024/04/21 02:04:22;;;;;;;2.47;1.30;;;5.10;82.70;;;;;;5407114;26;20283;-75
2024/04/21 02:06:49;;;;;;;2.97;1.20;;;5.10;82.70;;;;;;5414673;26;20285;-74
2024/04/21 02:09:16;;;;;;;1.70;1.30;;;5.10;82.40;;;;;;5426282;26;20475;-73
2024/04/21 02:11:42;;;;;;;2.10;1.20;;;5.10;82.40;;;;;;5412125;26;20479;-73
2024/04/21 02:14:08;;;;;;;2.27;1.30;;;5.20;82.50;;;;;;5403154;26;20532;-73
2024/04/21 02:16:33;;;;;;;3.97;1.37;;;5.20;82.10;;;;;;5413857;26;20990;-73
2024/04/21 02:18:59;;;;;;;2.00;1.70;;;5.20;82.20;;;;;;5414953;26;20237;-74
2024/04/21 02:21:24;;;;;;;2.03;1.30;;;5.30;82.10;;;;;;5411153;26;20255;-74
2024/04/21 02:23:50;;;;;;;2.33;1.53;;;5.30;81.50;;;;;;5408774;26;20249;-73
2024/04/21 02:26:15;;;;;;;2.10;1.43;;;5.30;81.80;;;;;;5414763;26;20238;-71
2024/04/21 02:28:42;;;;;;;3.90;1.80;;;5.30;81.80;;;;;;5413401;26;20643;-73
2024/04/21 02:31:07;;;;;;;2.90;1.60;;;5.30;81.80;;;;;;5410135;26;20268;-73
2024/04/21 02:33:33;;;;;;;2.80;1.60;;;5.30;81.90;;;;;;5410263;26;21255;-73
2024/04/21 02:35:58;;;;;;;4.17;1.90;;;5.30;81.90;;;;;;5418888;26;20238;-71
2024/04/21 02:38:24;;;;;;;2.33;1.60;;;5.30;81.80;;;;;;5426870;26;20280;-71
2024/04/21 02:40:50;;;;;;;2.27;1.50;;;5.30;81.70;;;;;;5436887;26;20275;-72
2024/04/21 02:43:15;;;;;;;2.70;1.80;;;5.30;81.80;;;;;;5416312;26;20257;-73
2024/04/21 02:45:41;;;;;;;4.07;1.50;;;5.30;81.90;;;;;;5417118;26;21040;-74
2024/04/21 02:48:07;;;;;;;4.27;1.93;;;5.30;81.70;;;;;;5415652;26;20272;-72
2024/04/21 02:50:35;;;;;;;2.47;2.07;;;5.30;81.80;;;;;;5415134;26;20771;-72
2024/04/21 02:53:01;;;;;;;3.63;2.00;;;5.30;81.90;;;;;;5404821;26;20475;-73
2024/04/21 02:55:26;;;;;;;5.33;1.93;;;5.40;81.80;;;;;;5421680;26;20502;-73
2024/04/21 02:57:52;;;;;;;3.40;2.20;;;5.40;81.90;;;;;;5415598;26;20586;-72
2024/04/21 03:00:18;;;;;;;4.33;2.47;;;5.20;82.70;;;;;;5393786;26;20257;-72
2024/04/21 03:02:43;;;;;;;4.80;2.40;;;5.10;83.60;;;;;;5411637;26;20245;-74
2024/04/21 03:05:09;;;;;;;5.20;2.87;;;5.10;84.00;;;;;;5420163;26;20238;-72
2024/04/21 03:07:35;;;;;;;3.77;2.93;;;5.10;84.30;;;;;;5414346;26;20686;-74
2024/04/21 03:10:01;;;;;;;6.80;3.80;;;5.00;84.60;;;;;;5415480;26;20460;-73
2024/04/21 03:12:26;;;;;;;7.50;3.83;;;5.00;85.00;;;;;;5411710;26;20241;-73
2024/04/21 03:14:52;;;;;;;8.73;4.27;;;5.00;85.50;;;;;;5406823;26;20902;-72
2024/04/21 03:17:21;;;;;;;6.50;4.80;;;5.00;86.00;;;;;;5417363;26;20273;-73
2024/04/21 03:19:49;;;;;;;9.00;5.00;;;4.90;86.00;;;;;;5420300;26;20293;-70
2024/04/21 03:22:15;;;;;;;9.80;5.33;;;4.80;85.90;;;;;;5418472;26;20562;-72
2024/04/21 03:24:41;;;;;;;7.60;5.50;;;4.70;86.20;;;;;;5421900;26;20487;-72
2024/04/21 03:27:07;;;;;;;9.60;5.13;;;4.80;86.50;;;;;;5418618;26;20229;-73
2024/04/21 03:29:32;;;;;;;7.93;5.00;;;4.60;86.60;;;;;;5416925;26;20247;-71
2024/04/21 03:31:59;;;;;;;10.90;6.47;;;4.60;86.80;;;;;;5417020;26;20278;-72
2024/04/21 03:34:25;;;;;;;6.20;4.57;;;4.50;87.10;;;;;;5413508;26;20730;-72
2024/04/21 03:36:50;;;;;;;5.80;2.83;;;4.30;87.30;;;;;;5412807;26;20456;-72
2024/04/21 03:39:17;;;;;;;9.37;4.57;;;4.10;87.10;;;;;;5418937;26;20583;-73
2024/04/21 03:41:42;;;;;;;6.13;4.10;;;4.00;87.30;;;;;;5416107;26;20249;-71
2024/04/21 03:44:08;;;;;;;7.00;3.73;;;4.00;87.80;;;;;;5408667;26;20460;-73
2024/04/21 03:46:33;;;;;;;7.80;5.03;;;3.90;88.10;;;;;;5413082;26;20997;-70
2024/04/21 03:48:59;;;;;;;7.17;4.40;;;3.90;88.10;;;;;;5412887;26;20229;-71
2024/04/21 03:51:24;;;;;;;7.90;4.03;;;4.00;88.60;;;;;;5410423;26;20253;-71
2024/04/21 03:53:50;;;;;;;5.40;3.10;;;4.00;88.90;;;;;;5413413;26;20237;-73
2024/04/21 03:56:15;;;;;;;6.43;3.80;;;3.90;88.90;;;;;;5413631;26;20237;-76
2024/04/21 03:58:41;;;;;;;6.90;4.43;;;3.90;89.00;;;;;;5409893;26;20726;-72
2024/04/21 04:01:07;;;;;;;5.47;3.77;;;3.80;89.20;;;;;;5410255;26;20245;-70
2024/04/21 04:03:32;;;;;;;6.70;4.70;;;3.80;89.20;;;;;;5408216;26;20268;-73
2024/04/21 04:05:58;;;;;;;6.83;4.30;;;3.80;89.50;;;;;;5408269;26;20280;-72
2024/04/21 04:08:23;;;;;;;8.97;5.10;;;3.80;89.60;;;;;;5412721;26;20245;-73
2024/04/21 04:10:50;;;;;;;7.70;3.63;;;3.80;89.60;;;;;;5416372;26;20576;-72
2024/04/21 04:13:17;;;;;;;7.43;4.70;;;3.80;89.60;;;;;;5409309;26;20284;-73
2024/04/21 04:15:42;;;;;;;9.33;4.90;;;3.70;89.50;;;;;;5413774;26;20467;-72
2024/04/21 04:18:08;;;;;;;8.03;5.20;;;3.60;89.60;;;;;;5413107;26;20502;-74
2024/04/21 04:20:34;;;;;;;9.90;4.73;;;3.60;89.70;;;;;;5413940;26;20249;-71
2024/04/21 04:23:00;;;;;;;7.63;4.27;;;3.60;89.90;;;;;;5408151;26;20379;-70
2024/04/21 04:25:27;;;;;;;7.00;5.40;;;3.60;90.00;;;;;;5400798;26;20486;-74
2024/04/21 04:27:52;;;;;;;9.27;6.07;;;3.50;90.00;;;;;;5412627;26;20459;-72
2024/04/21 04:30:18;;;;;;;14.60;7.00;;;3.60;90.10;;;;;;5417837;26;20272;-72
2024/04/21 04:32:44;;;;;;;8.63;5.33;;;3.60;90.20;;;;;;5413174;26;20482;-72
2024/04/21 04:35:10;;;;;;;8.10;5.55;;;3.60;90.30;;;;;;5413475;26;20275;-72
2024/04/21 04:37:36;;;;;;;10.67;6.13;;;3.60;90.20;;;;;;5384773;26;20234;-71
2024/04/21 04:40:02;;;;;;;8.60;5.60;;;3.60;90.20;;;;;;5417403;26;20226;-74
2024/04/21 04:42:28;;;;;;;6.27;4.77;;;3.70;90.30;;;;;;5413304;26;20483;-72
2024/04/21 04:44:53;;;;;;;8.63;5.40;;;3.60;90.20;;;;;;5407098;26;20242;-72
2024/04/21 04:47:19;;;;;;;8.10;4.90;;;3.50;90.10;;;;;;5420098;26;20824;-73
2024/04/21 04:49:46;;;;;;;6.40;4.20;;;3.50;90.00;;;;;;5421177;26;20245;-72
2024/04/21 04:52:12;;;;;;;8.50;4.27;;;3.60;90.00;;;;;;5412044;26;20527;-73
2024/04/21 04:54:38;;;;;;;7.40;4.37;;;3.50;89.90;;;;;;5409241;26;20455;-72
2024/04/21 04:57:04;;;;;;;5.20;3.53;;;3.50;89.70;;;;;;5414688;26;20365;-71
2024/04/21 04:59:29;;;;;;;4.97;3.00;;;3.50;89.60;;;;;;5417131;26;20237;-72
2024/04/21 05:01:55;;;;;;;6.43;3.30;;;3.60;89.70;;;;;;5410918;26;20577;-72
2024/04/21 05:04:21;;;;;;;4.93;3.00;;;3.50;89.60;;;;;;5415337;26;20291;-73
2024/04/21 05:06:46;;;;;;;3.90;2.80;;;3.50;89.50;;;;;;5419491;26;20746;-73
2024/04/21 05:09:12;;;;;;;3.87;2.60;;;3.50;89.50;;;;;;5416765;26;20280;-74
2024/04/21 05:11:39;;;;;;;4.80;2.80;;;3.50;89.30;;;;;;5415634;26;20780;-74
2024/04/21 05:14:04;;;;;;;4.30;2.53;;;3.50;89.00;;;;;;5413648;26;20276;-72
2024/04/21 05:16:30;;;;;;;14.70;2.70;;;3.50;88.90;;;;;;5416650;26;20756;-72
2024/04/21 05:18:55;;;;;;;3.70;2.30;;;3.50;88.70;;;;;;5415815;26;20284;-73
2024/04/21 05:21:21;;;;;;;11.87;3.47;;;3.50;88.70;;;;;;5412026;26;20239;-71
2024/04/21 05:23:46;;;;;;;4.40;2.07;;;3.50;88.60;;;;;;5414077;26;20620;-72
2024/04/21 05:26:12;;;;;;;8.13;2.93;;;3.60;88.60;;;;;;5413446;26;20234;-74
2024/04/21 05:28:37;;;;;;;7.07;2.57;;;3.50;88.30;;;;;;5416420;26;20342;-75
2024/04/21 05:31:03;;;;;;;10.83;3.10;;;3.50;88.30;;;;;;5413273;26;20275;-72
2024/04/21 05:33:29;;;;;;;5.60;2.43;;;3.50;88.30;;;;;;5412807;26;20238;-73
2024/04/21 05:35:55;;;;;;;10.33;2.70;;;3.60;88.10;;;;;;5411074;26;20225;-74
2024/04/21 05:38:21;;;;;;;4.73;2.90;;;3.60;88.10;;;;;;5416993;26;20452;-74
2024/04/21 05:40:47;;;;;;;8.93;3.17;;;3.70;88.10;;;;;;5414282;26;20562;-72
2024/04/21 05:43:13;;;;;;;4.83;3.10;;;3.60;88.00;;;;;;5410329;26;20253;-76
2024/04/21 05:45:39;;;;;;;8.97;2.90;;;3.60;87.80;;;;;;5410959;26;20350;-73
2024/04/21 05:48:05;;;;;;;4.37;2.87;;;3.70;87.80;;;;;;5393231;26;20950;-72
2024/04/21 05:50:31;;;;;;;7.20;3.40;;;3.70;87.30;;;;;;5415343;26;20361;-74
2024/04/21 05:52:56;;;;;;;4.00;2.60;;;3.80;87.30;;;;;;5410285;26;20493;-73
2024/04/21 05:55:22;;;;;;;5.87;2.60;;;3.80;87.10;;;;;;5409199;26;20789;-71
2024/04/21 05:57:47;;;;;;;6.23;2.77;;;3.70;86.30;;;;;;5422054;26;20338;-73
2024/04/21 06:00:15;;;;;;;5.33;2.60;;;3.80;86.30;;;;;;5416856;26;20725;-73
2024/04/21 06:02:41;;;;;;;5.23;2.30;;;3.80;86.50;;;;;;5401930;26;20254;-72
2024/04/21 06:05:06;;;;;;;7.90;2.90;;;3.90;86.50;;;;;;5413921;26;20606;-72
2024/04/21 06:07:32;;;;;;;8.37;2.63;;;3.90;86.30;;;;;;5402986;26;20983;-72
2024/04/21 06:09:58;;;;;;;7.10;2.83;;;4.10;86.30;;;;;;5420920;26;20773;-74
2024/04/21 06:12:24;;;;;;;5.53;2.40;;;4.10;86.50;;;;;;5403813;26;20306;-72
2024/04/21 06:14:50;;;;;;;5.33;2.47;;;4.20;86.20;;;;;;5413676;26;20455;-73
2024/04/21 06:17:15;;;;;;;5.90;1.80;;;4.10;85.60;;;;;;5414124;26;21027;-71
2024/04/21 06:19:41;;;;;;;11.00;2.40;;;4.00;84.40;;;;;;5414209;26;20350;-73
2024/04/21 06:22:07;;;;;;;6.90;2.90;;;4.10;84.70;;;;;;5407798;26;20289;-72
2024/04/21 06:24:32;;;;;;;6.60;2.27;;;4.10;84.30;;;;;;5405195;26;20241;-72
2024/04/21 06:26:58;;;;;;;7.00;2.37;;;4.00;84.10;;;;;;5413809;26;20472;-73
2024/04/21 06:29:23;;;;;;;7.30;3.20;;;4.00;84.30;;;;;;5413806;26;20282;-74
2024/04/21 06:31:49;;;;;;;5.07;2.20;;;4.10;84.00;;;;;;5410354;26;20233;-73
2024/04/21 06:34:15;;;;;;;7.17;2.17;;;4.20;84.10;;;;;;5405478;26;20237;-74
2024/04/21 06:36:40;;;;;;;7.60;2.73;;;4.10;83.80;;;;;;5407311;26;20279;-71
2024/04/21 06:39:06;;;;;;;10.87;3.33;;;4.20;84.00;;;;;;5414033;26;20334;-74
2024/04/21 06:41:31;;;;;;;10.63;3.47;;;4.10;83.80;;;;;;5411625;26;20289;-73
2024/04/21 06:43:57;;;;;;;9.80;3.20;;;4.10;83.60;;;;;;5409704;26;20280;-71
2024/04/21 06:46:22;;;;;;;6.83;2.90;;;4.10;83.70;;;;;;5413931;26;20276;-72
2024/04/21 06:48:48;;;;;;;10.00;3.50;;;4.10;84.00;;;;;;5414711;26;20280;-71
2024/04/21 06:51:13;;;;;;;13.10;3.57;;;4.20;84.30;;;;;;5411041;26;20241;-71
2024/04/21 06:53:39;;;;;;;12.60;2.97;;;4.10;84.40;;;;;;5416080;26;20234;-71
2024/04/21 06:56:05;;;;;;;8.50;3.83;;;4.20;84.60;;;;;;5408210;26;20350;-72
2024/04/21 06:58:30;;;;;;;9.47;3.50;;;4.40;84.70;;;;;;5424074;26;20250;-72
2024/04/21 07:00:56;;;;;;;10.63;3.47;;;4.40;84.70;;;;;;5425086;26;20234;-73
2024/04/21 07:03:22;;;;;;;10.80;4.30;;;4.30;83.80;;;;;;5401322;26;20249;-71
2024/04/21 07:05:47;;;;;;;9.53;3.80;;;4.20;83.80;;;;;;5408688;26;20245;-73
2024/04/21 07:08:13;;;;;;;9.33;3.70;;;4.20;83.80;;;;;;5414828;26;20237;-73
2024/04/21 07:10:38;;;;;;;6.13;3.10;;;4.30;84.00;;;;;;5413996;26;20233;-73
2024/04/21 07:13:04;;;;;;;13.10;3.37;;;4.20;83.80;;;;;;5397769;26;20312;-72
2024/04/21 07:15:29;;;;;;;9.87;3.43;;;4.20;83.30;;;;;;5404020;26;20242;-72
2024/04/21 07:17:55;;;;;;;9.57;3.40;;;4.20;83.70;;;;;;5413833;26;20280;-72
2024/04/21 07:20:21;;;;;;;11.50;3.80;;;4.50;84.10;;;;;;5414479;26;20330;-70
2024/04/21 07:22:47;;;;;;;18.33;3.80;;;4.40;83.40;;;;;;5410277;26;20245;-72
2024/04/21 07:25:14;;;;;;;14.77;5.23;;;4.40;83.40;;;;;;5415194;26;20560;-72
2024/04/21 07:27:40;;;;;;;7.43;3.90;;;4.60;83.70;;;;;;5415540;26;20459;-73
2024/04/21 07:30:07;;;;;;;8.90;3.40;;;4.60;83.30;;;;;;5408842;26;20583;-72
2024/04/21 07:32:33;;;;;;;5.33;3.27;;;4.70;82.80;;;;;;5399962;26;20476;-72
2024/04/21 07:34:59;;;;;;;10.53;3.13;;;4.70;82.20;;;;;;5408146;26;20521;-70
2024/04/21 07:37:24;;;;;;;13.30;3.47;;;4.60;81.80;;;;;;5419162;26;20615;-75
2024/04/21 07:39:50;;;;;;;14.40;3.70;;;4.70;82.10;;;;;;5414222;26;20237;-74
2024/04/21 07:42:15;;;;;;;9.13;3.70;;;4.60;80.80;;;;;;5414259;26;20245;-74
2024/04/21 07:44:41;;;;;;;7.17;3.93;;;4.80;81.40;;;;;;5413504;26;20230;-74
2024/04/21 07:47:07;;;;;;;7.10;3.27;;;4.90;80.90;;;;;;5381824;26;20241;-74
2024/04/21 07:49:32;;;;;;;10.97;3.00;;;5.00;81.10;;;;;;5420566;26;20830;-73
2024/04/21 07:51:58;;;;;;;9.37;3.70;;;5.30;81.10;;;;;;5409599;26;20249;-75
2024/04/21 07:54:24;;;;;;;8.30;3.00;;;5.40;79.90;;;;;;5402767;26;20238;-74
2024/04/21 07:56:49;;;;;;;14.57;3.03;;;5.40;78.60;;;;;;5408488;26;20261;-73
2024/04/21 07:59:16;;;;;;;9.10;3.43;;;5.30;77.00;;;;;;5413285;26;20467;-75
2024/04/21 08:01:41;;;;;;;11.87;3.20;;;5.30;76.50;;;;;;5408780;26;20598;-74
2024/04/21 08:04:07;;;;;;;10.60;4.13;;;5.30;76.70;;;;;;5381618;26;20526;-74
2024/04/21 08:06:33;;;;;;;4.53;2.80;;;5.40;77.30;;;;;;5412405;26;20238;-74
2024/04/21 08:08:58;;;;;;;6.43;2.80;;;5.40;76.50;;;;;;5396994;26;20236;-72
2024/04/21 08:11:25;;;;;;;6.57;2.43;;;5.60;75.90;;;;;;5415855;26;20780;-71
2024/04/21 08:13:50;;;;;;;5.47;2.10;;;5.40;75.10;;;;;;5405682;26;20585;-73
2024/04/21 08:16:16;;;;;;;7.10;2.30;;;5.20;74.60;;;;;;5409337;26;20523;-73
2024/04/21 08:18:42;;;;;;;5.60;2.80;;;5.10;74.00;;;;;;5417033;26;20268;-73
2024/04/21 08:21:07;;;;;;;6.57;2.70;;;5.00;74.20;;;;;;5382054;26;20233;-73
2024/04/21 08:23:33;;;;;;;9.00;3.03;;;5.00;73.90;;;;;;5406821;26;20268;-73
2024/04/21 08:26:00;;;;;;;6.70;2.10;;;5.00;74.60;;;;;;5416096;26;20241;-74
2024/04/21 08:28:29;;;;;;;5.90;2.47;;;5.00;74.80;;;;;;5417254;26;20714;-71
2024/04/21 08:30:55;;;;;;;6.27;2.83;;;5.00;74.80;;;;;;5417459;26;20966;-75
2024/04/21 08:33:20;;;;;;;6.07;2.80;;;4.90;74.60;;;;;;5408133;26;20535;-72
2024/04/21 08:35:57;;;;;;;6.27;2.20;;;5.00;75.20;;;;;;5419466;26;20523;-73
2024/04/21 08:38:23;;;;;;;5.10;2.50;;;4.80;74.90;;;;;;5415782;26;20752;-74
2024/04/21 08:40:50;;;;;;;6.17;2.20;;;4.90;75.10;;;;;;5418302;26;21061;-75
2024/04/21 08:43:25;;;;;;;6.70;2.40;;;5.10;75.40;;;;;;5418684;26;20538;-73
2024/04/21 08:45:53;;;;;;;15.27;4.30;;;5.00;74.00;;;;;;5418130;26;20459;-74
2024/04/21 08:48:20;;;;;;;7.73;2.63;;;5.10;74.20;;;;;;5416033;26;20537;-74
2024/04/21 08:50:46;;;;;;;9.13;3.80;;;5.30;74.30;;;;;;5415222;26;21136;-75
2024/04/21 08:53:12;;;;;;;6.60;2.40;;;5.40;73.70;;;;;;5408888;26;20523;-73
2024/04/21 08:55:39;;;;;;;4.57;2.30;;;5.40;72.40;;;;;;5418466;26;20479;-74
2024/04/21 08:58:10;;;;;;;8.03;2.50;;;5.40;71.80;;;;;;5418276;26;20611;-75
2024/04/21 09:00:38;;;;;;;4.37;1.90;;;5.70;72.30;;;;;;5417493;26;20920;-74
2024/04/21 09:03:04;;;;;;;3.43;1.97;;;5.50;71.30;;;;;;5419635;26;20475;-73
2024/04/21 09:05:30;;;;;;;8.70;2.00;;;5.70;71.40;;;;;;5408305;26;20468;-73
2024/04/21 09:07:58;;;;;;;3.40;2.00;;;5.70;70.40;;;;;;5419714;26;20510;-75
2024/04/21 09:10:24;;;;;;;7.70;2.17;;;5.60;70.80;;;;;;5416140;26;20582;-75
2024/04/21 09:12:50;;;;;;;3.17;1.60;;;5.80;70.80;;;;;;5409187;26;20467;-72
2024/04/21 09:15:16;;;;;;;4.30;2.20;;;6.00;69.70;;;;;;5407152;26;20471;-74
2024/04/21 09:17:42;;;;;;;4.57;1.87;;;6.00;69.90;;;;;;5415028;26;20592;-74
2024/04/21 09:20:09;;;;;;;5.83;2.00;;;5.70;69.70;;;;;;5415251;26;20531;-74
2024/04/21 09:22:35;;;;;;;6.87;2.27;;;5.70;69.80;;;;;;5409435;26;20472;-72
2024/04/21 09:25:00;;;;;;;3.47;2.40;;;5.60;70.10;;;;;;5399887;26;20939;-73
2024/04/21 09:27:27;;;;;;;7.23;2.17;;;5.40;71.80;;;;;;5409380;26;20237;-73
2024/04/21 09:29:56;;;;;;;9.33;2.63;;;5.40;72.70;;;;;;5415283;26;20281;-73
2024/04/21 09:32:22;;;;;;;5.87;2.60;;;5.60;73.60;;;;;;5410655;26;21062;-71
2024/04/21 09:34:48;;;;;;;9.70;3.13;;;5.70;73.90;;;;;;5399596;26;20472;-74
2024/04/21 09:37:17;;;;;;;6.30;2.63;;;6.00;74.20;;;;;;5415189;26;20237;-76
2024/04/21 09:39:47;;;;;;;7.20;2.77;;;5.90;72.70;;;;;;5415839;26;20467;-74
2024/04/21 09:42:15;;;;;;;11.60;3.57;;;5.90;72.60;;;;;;5416499;26;20558;-74
2024/04/21 09:44:42;;;;;;;5.23;2.57;;;6.10;72.70;;;;;;5417522;26;20460;-74
2024/04/21 09:47:08;;;;;;;9.23;2.60;;;6.20;71.10;;;;;;5414525;26;20574;-75
2024/04/21 09:49:34;;;;;;;9.87;2.40;;;6.30;70.40;;;;;;5415210;26;20467;-74
2024/04/21 09:52:03;;;;;;;7.60;2.23;;;6.00;69.80;;;;;;5411464;26;20471;-75
2024/04/21 09:54:29;;;;;;;10.63;2.13;;;6.20;70.50;;;;;;5398572;26;20621;-75
2024/04/21 09:57:04;;;;;;;7.50;2.30;;;6.20;70.20;;;;;;5414891;26;20463;-73
2024/04/21 09:59:30;;;;;;;5.93;2.13;;;6.30;69.80;;;;;;5415639;26;20341;-75
2024/04/21 10:01:58;;;;;;;5.57;2.10;;;6.40;68.20;;;;;;5417120;26;20681;-75
2024/04/21 10:04:28;;;;;;;5.17;1.57;;;6.50;67.90;;;;;;5404684;26;20541;-75
2024/04/21 10:06:54;;;;;;;6.90;1.93;;;6.70;67.70;;;;;;5414683;26;20463;-74
2024/04/21 10:09:21;;;;;;;6.33;2.13;;;7.00;67.70;;;;;;5415667;26;20585;-73
2024/04/21 10:11:47;;;;;;;4.20;1.97;;;6.60;66.10;;;;;;5415551;26;20994;-75
2024/04/21 10:14:14;;;;;;;3.27;1.60;;;6.50;67.70;;;;;;5407153;26;20535;-75
2024/04/21 10:16:41;;;;;;;3.93;1.67;;;6.80;67.70;;;;;;5415564;26;20343;-74
2024/04/21 10:19:10;;;;;;;4.70;1.73;;;6.90;67.00;;;;;;5416707;26;21105;-75
2024/04/21 10:21:36;;;;;;;5.47;2.30;;;6.70;65.70;;;;;;5418814;26;20562;-74
2024/04/21 10:24:03;;;;;;;3.63;2.23;;;6.50;66.60;;;;;;5410378;26;20471;-74
2024/04/21 10:26:31;;;;;;;6.53;2.10;;;6.70;67.00;;;;;;5413164;26;20467;-73
2024/04/21 10:29:10;;;;;;;2.80;1.70;;;6.90;66.40;;;;;;5423009;26;20467;-74
2024/04/21 10:31:36;;;;;;;3.90;1.70;;;6.90;66.30;;;;;;5405273;26;20825;-75
2024/04/21 10:34:05;;;;;;;7.30;1.97;;;7.10;66.10;;;;;;5412974;26;20550;-72
2024/04/21 10:36:46;;;;;;;4.40;1.97;;;7.50;66.60;;;;;;5413271;26;20237;-72
2024/04/21 10:39:23;;;;;;;5.33;2.00;;;7.90;64.20;;;;;;5415049;26;20554;-74
2024/04/21 10:41:51;;;;;;;4.30;1.70;;;7.80;63.40;;;;;;5411770;26;21071;-74
2024/04/21 10:44:17;;;;;;;6.17;1.80;;;7.70;64.20;;;;;;5402836;26;20467;-74
2024/04/21 10:46:43;;;;;;;5.33;1.80;;;7.10;63.70;;;;;;5411615;26;20545;-73
2024/04/21 10:49:09;;;;;;;6.33;2.30;;;7.30;65.10;;;;;;5415448;26;20852;-74
2024/04/21 10:51:35;;;;;;;5.33;1.97;;;7.80;65.10;;;;;;5413721;26;20249;-75
2024/04/21 10:54:00;;;;;;;13.13;2.50;;;8.20;63.40;;;;;;5385356;26;20483;-75
2024/04/21 10:56:26;;;;;;;5.40;2.03;;;8.80;63.20;;;;;;5410038;26;20641;-76
2024/04/21 10:58:52;;;;;;;5.97;2.03;;;9.20;61.90;;;;;;5417127;26;20343;-75
2024/04/21 11:01:19;;;;;;;9.77;3.17;;;8.70;60.90;;;;;;5413888;26;20249;-74
2024/04/21 11:03:44;;;;;;;3.30;1.77;;;8.10;61.50;;;;;;5416260;26;20329;-74
2024/04/21 11:06:10;;;;;;;3.90;1.70;;;7.70;63.20;;;;;;5412760;26;21208;-73
2024/04/21 11:08:36;;;;;;;5.33;1.80;;;7.80;62.60;;;;;;5424763;26;20232;-76
2024/04/21 11:11:02;;;;;;;3.23;1.90;;;8.20;63.10;;;;;;5418856;26;20332;-73
2024/04/21 11:13:28;;;;;;;3.63;1.70;;;8.60;62.80;;;;;;5412101;26;20539;-74
2024/04/21 11:15:54;;;;;;;3.13;1.93;;;8.70;61.30;;;;;;5413539;26;20910;-74
2024/04/21 11:18:19;;;;;;;4.03;2.53;;;8.40;61.30;;;;;;5410227;26;20535;-73
2024/04/21 11:20:45;;;;;;;2.30;1.73;;;8.20;62.00;;;;;;5419858;26;20245;-75
2024/04/21 11:23:16;;;;;;;2.67;1.80;;;7.90;62.90;;;;;;5406622;26;20671;-75
2024/04/21 11:25:43;;;;;;;4.33;2.17;;;8.00;63.70;;;;;;5414205;26;20535;-73
2024/04/21 11:28:18;;;;;;;4.57;2.00;;;7.80;64.40;;;;;;5423437;26;20968;-75
2024/04/21 11:30:44;;;;;;;4.40;2.20;;;7.50;65.30;;;;;;5412111;26;20529;-72
2024/04/21 11:33:12;;;;;;;6.80;2.67;;;7.20;67.20;;;;;;5410719;26;20488;-75
2024/04/21 11:35:39;;;;;;;8.03;2.40;;;6.70;68.30;;;;;;5413263;26;20241;-74
2024/04/21 11:38:05;;;;;;;9.60;2.57;;;6.70;69.10;;;;;;5418561;26;20475;-76
2024/04/21 11:40:31;;;;;;;10.87;3.03;;;6.70;69.70;;;;;;5420207;26;20463;-75
2024/04/21 11:42:57;;;;;;;5.67;2.57;;;6.90;70.10;;;;;;5419979;26;20558;-73
2024/04/21 11:45:27;;;;;;;6.80;2.80;;;7.00;69.90;;;;;;5428230;26;20280;-75
2024/04/21 11:48:00;;;;;;;8.00;2.60;;;6.80;68.80;;;;;;5420703;26;20464;-75
2024/04/21 11:50:26;;;;;;;5.13;2.20;;;7.00;69.10;;;;;;5417151;26;20957;-75
2024/04/21 11:52:52;;;;;;;3.80;2.10;;;7.00;69.40;;;;;;5414294;26;20475;-75
2024/04/21 11:55:19;;;;;;;5.80;2.47;;;7.20;67.20;;;;;;5395305;26;20519;-73
2024/04/21 11:57:44;;;;;;;8.70;2.50;;;7.50;67.30;;;;;;5414678;26;20582;-74
2024/04/21 12:00:10;;;;;;;5.37;2.63;;;7.70;66.70;;;;;;5416570;26;21030;-73
2024/04/21 12:02:36;;;;;;;12.27;3.23;;;8.00;66.40;;;;;;5412766;26;20342;-75
2024/04/21 12:05:02;;;;;;;6.80;2.57;;;8.30;65.40;;;;;;5402357;26;20475;-74
2024/04/21 12:07:27;;;;;;;6.90;2.07;;;7.90;64.70;;;;;;5417543;26;20276;-76
2024/04/21 12:09:53;;;;;;;5.83;2.60;;;8.00;65.40;;;;;;5414209;26;20530;-76
2024/04/21 12:12:19;;;;;;;3.40;1.87;;;8.20;65.70;;;;;;5405842;26;20832;-76
2024/04/21 12:14:44;;;;;;;3.27;2.03;;;8.00;65.30;;;;;;5394515;26;20233;-74
2024/04/21 12:17:14;;;;;;;3.37;2.07;;;7.40;66.70;;;;;;5413829;26;20272;-74
2024/04/21 12:19:40;;;;;;;3.70;2.20;;;7.30;67.20;;;;;;5409019;26;20230;-75
2024/04/21 12:22:05;;;;;;;14.53;2.13;;;7.30;67.60;;;;;;5409460;26;21103;-75
2024/04/21 12:24:31;;;;;;;3.90;1.93;;;7.20;66.60;;;;;;5414765;26;20331;-74
2024/04/21 12:26:56;;;;;;;4.37;1.90;;;7.00;66.90;;;;;;5414491;26;20241;-75
2024/04/21 12:29:23;;;;;;;6.17;1.73;;;7.00;66.10;;;;;;5405181;26;20745;-74
2024/04/21 12:31:48;;;;;;;6.77;1.90;;;7.00;65.30;;;;;;5410896;26;20253;-75
2024/04/21 12:34:14;;;;;;;4.60;1.90;;;7.10;65.80;;;;;;5402640;26;20995;-74
2024/04/21 12:36:39;;;;;;;7.27;2.10;;;7.30;65.00;;;;;;5413591;26;20233;-73
2024/04/21 12:39:05;;;;;;;3.93;1.53;;;7.40;65.30;;;;;;5413220;26;20303;-74
2024/04/21 12:41:31;;;;;;;5.83;2.37;;;7.40;65.70;;;;;;5410459;26;20241;-74
2024/04/21 12:43:56;;;;;;;4.53;2.10;;;7.70;66.00;;;;;;5409608;26;20245;-73
2024/04/21 12:46:22;;;;;;;9.20;2.73;;;7.80;65.80;;;;;;5414116;26;20292;-74
2024/04/21 12:48:47;;;;;;;4.10;2.10;;;8.10;66.00;;;;;;5417214;26;20275;-73